sensor_id;sensor_type;location;lat;lon;timestamp;P1;durP1;ratioP1;P2;durP2;ratioP2
17741;SDS011;8993;51.822;-2.268;2022-10-16T00:01:28;18.94;;;1.59;;
17741;SDS011;8993;51.822;-2.268;2022-10-16T00:06:32;21.59;;;1.86;;
17741;SDS011;8993;51.822;-2.268;2022-10-16T00:11:38;21.93;;;1.78;;
17741;SDS011;8993;51.822;-2.268;2022-10-16T00:16:42;22.69;;;1.89;;
17741;SDS011;8993;51.822;-2.268;2022-10-16T00:21:48;21.54;;;1.83;;
17741;SDS011;8993;51.822;-2.268;2022-10-16T00:26:52;21.19;;;1.71;;
17741;SDS011;8993;51.822;-2.268;2022-10-16T00:31:57;16.28;;;1.54;;
17741;SDS011;8993;51.822;-2.268;2022-10-16T00:37:02;22.65;;;1.78;;
17741;SDS011;8993;51.822;-2.268;2022-10-16T00:42:05;20.06;;;1.58;;
17741;SDS011;8993;51.822;-2.268;2022-10-16T00:47:11;17.36;;;0.99;;
17741;SDS011;8993;51.822;-2.268;2022-10-16T00:52:15;10.77;;;0.84;;
17741;SDS011;8993;51.822;-2.268;2022-10-16T00:57:19;8.41;;;0.70;;
17741;SDS011;8993;51.822;-2.268;2022-10-16T01:02:23;12.34;;;0.72;;
17741;SDS011;8993;51.822;-2.268;2022-10-16T01:07:31;14.14;;;0.98;;
17741;SDS011;8993;51.822;-2.268;2022-10-16T01:12:35;7.86;;;0.74;;
17741;SDS011;8993;51.822;-2.268;2022-10-16T01:17:38;8.43;;;0.82;;
17741;SDS011;8993;51.822;-2.268;2022-10-16T01:22:43;8.81;;;0.75;;
17741;SDS011;8993;51.822;-2.268;2022-10-16T01:27:45;11.49;;;1.16;;
17741;SDS011;8993;51.822;-2.268;2022-10-16T01:32:50;20.42;;;1.50;;
17741;SDS011;8993;51.822;-2.268;2022-10-16T01:37:57;18.80;;;1.69;;
17741;SDS011;8993;51.822;-2.268;2022-10-16T01:43:02;19.48;;;1.40;;
17741;SDS011;8993;51.822;-2.268;2022-10-16T01:48:06;15.21;;;1.36;;
17741;SDS011;8993;51.822;-2.268;2022-10-16T01:53:11;16.79;;;1.29;;
17741;SDS011;8993;51.822;-2.268;2022-10-16T01:58:15;21.05;;;1.28;;
17741;SDS011;8993;51.822;-2.268;2022-10-16T02:03:19;20.43;;;1.58;;
17741;SDS011;8993;51.822;-2.268;2022-10-16T02:08:24;21.01;;;2.12;;
17741;SDS011;8993;51.822;-2.268;2022-10-16T02:13:29;21.01;;;2.17;;
17741;SDS011;8993;51.822;-2.268;2022-10-16T02:18:32;26.56;;;2.18;;
17741;SDS011;8993;51.822;-2.268;2022-10-16T02:23:40;22.79;;;2.09;;
17741;SDS011;8993;51.822;-2.268;2022-10-16T02:28:44;23.39;;;2.01;;
17741;SDS011;8993;51.822;-2.268;2022-10-16T02:33:46;22.85;;;1.83;;
17741;SDS011;8993;51.822;-2.268;2022-10-16T02:38:51;23.37;;;2.06;;
17741;SDS011;8993;51.822;-2.268;2022-10-16T02:43:55;24.61;;;2.01;;
17741;SDS011;8993;51.822;-2.268;2022-10-16T02:49:00;21.92;;;1.90;;
17741;SDS011;8993;51.822;-2.268;2022-10-16T02:54:04;26.50;;;2.30;;
17741;SDS011;8993;51.822;-2.268;2022-10-16T02:59:08;22.38;;;2.49;;
17741;SDS011;8993;51.822;-2.268;2022-10-16T03:04:12;27.11;;;2.22;;
17741;SDS011;8993;51.822;-2.268;2022-10-16T03:09:17;23.62;;;1.83;;
17741;SDS011;8993;51.822;-2.268;2022-10-16T03:14:21;25.06;;;1.81;;
17741;SDS011;8993;51.822;-2.268;2022-10-16T03:19:25;24.49;;;2.05;;
17741;SDS011;8993;51.822;-2.268;2022-10-16T03:24:30;28.23;;;2.08;;
17741;SDS011;8993;51.822;-2.268;2022-10-16T03:29:34;24.33;;;1.95;;
17741;SDS011;8993;51.822;-2.268;2022-10-16T03:34:39;24.70;;;1.77;;
17741;SDS011;8993;51.822;-2.268;2022-10-16T03:39:43;20.42;;;1.78;;
17741;SDS011;8993;51.822;-2.268;2022-10-16T03:44:47;27.52;;;2.18;;
17741;SDS011;8993;51.822;-2.268;2022-10-16T03:49:51;24.80;;;1.94;;
17741;SDS011;8993;51.822;-2.268;2022-10-16T03:54:56;27.08;;;2.09;;
17741;SDS011;8993;51.822;-2.268;2022-10-16T04:00:00;18.65;;;1.79;;
17741;SDS011;8993;51.822;-2.268;2022-10-16T04:05:05;19.26;;;1.61;;
17741;SDS011;8993;51.822;-2.268;2022-10-16T04:10:10;21.46;;;1.80;;
17741;SDS011;8993;51.822;-2.268;2022-10-16T04:15:14;17.52;;;1.79;;
17741;SDS011;8993;51.822;-2.268;2022-10-16T04:20:18;25.40;;;2.09;;
17741;SDS011;8993;51.822;-2.268;2022-10-16T04:25:23;27.25;;;2.23;;
17741;SDS011;8993;51.822;-2.268;2022-10-16T04:30:27;30.28;;;2.95;;
17741;SDS011;8993;51.822;-2.268;2022-10-16T04:35:31;31.35;;;3.18;;
17741;SDS011;8993;51.822;-2.268;2022-10-16T04:40:36;25.44;;;2.64;;
17741;SDS011;8993;51.822;-2.268;2022-10-16T04:45:40;23.94;;;2.14;;
17741;SDS011;8993;51.822;-2.268;2022-10-16T04:50:44;26.10;;;2.16;;
17741;SDS011;8993;51.822;-2.268;2022-10-16T04:55:49;22.82;;;2.02;;
17741;SDS011;8993;51.822;-2.268;2022-10-16T05:00:53;23.98;;;2.00;;
17741;SDS011;8993;51.822;-2.268;2022-10-16T05:05:57;23.37;;;1.70;;
17741;SDS011;8993;51.822;-2.268;2022-10-16T05:11:01;28.17;;;1.87;;
17741;SDS011;8993;51.822;-2.268;2022-10-16T05:16:06;23.76;;;1.70;;
17741;SDS011;8993;51.822;-2.268;2022-10-16T05:21:10;19.67;;;1.62;;
17741;SDS011;8993;51.822;-2.268;2022-10-16T05:26:14;23.37;;;1.84;;
17741;SDS011;8993;51.822;-2.268;2022-10-16T05:31:19;26.57;;;1.65;;
17741;SDS011;8993;51.822;-2.268;2022-10-16T05:36:23;24.63;;;1.84;;
17741;SDS011;8993;51.822;-2.268;2022-10-16T05:41:27;23.91;;;1.69;;
17741;SDS011;8993;51.822;-2.268;2022-10-16T05:46:31;23.02;;;1.84;;
17741;SDS011;8993;51.822;-2.268;2022-10-16T05:51:35;21.45;;;1.61;;
17741;SDS011;8993;51.822;-2.268;2022-10-16T05:56:40;25.50;;;1.58;;
17741;SDS011;8993;51.822;-2.268;2022-10-16T06:01:44;20.71;;;1.75;;
17741;SDS011;8993;51.822;-2.268;2022-10-16T06:06:49;26.87;;;1.77;;
17741;SDS011;8993;51.822;-2.268;2022-10-16T06:11:53;22.24;;;1.57;;
17741;SDS011;8993;51.822;-2.268;2022-10-16T06:16:57;24.59;;;1.46;;
17741;SDS011;8993;51.822;-2.268;2022-10-16T06:22:02;22.93;;;1.58;;
17741;SDS011;8993;51.822;-2.268;2022-10-16T06:27:06;24.12;;;1.66;;
17741;SDS011;8993;51.822;-2.268;2022-10-16T06:32:10;20.44;;;1.44;;
17741;SDS011;8993;51.822;-2.268;2022-10-16T06:37:14;20.86;;;1.64;;
17741;SDS011;8993;51.822;-2.268;2022-10-16T06:42:20;25.94;;;1.48;;
17741;SDS011;8993;51.822;-2.268;2022-10-16T06:47:24;22.69;;;1.50;;
17741;SDS011;8993;51.822;-2.268;2022-10-16T06:52:29;25.78;;;1.47;;
17741;SDS011;8993;51.822;-2.268;2022-10-16T06:57:33;20.12;;;1.38;;
17741;SDS011;8993;51.822;-2.268;2022-10-16T07:02:37;23.01;;;1.99;;
17741;SDS011;8993;51.822;-2.268;2022-10-16T07:07:41;19.41;;;1.31;;
17741;SDS011;8993;51.822;-2.268;2022-10-16T07:12:46;22.60;;;1.67;;
17741;SDS011;8993;51.822;-2.268;2022-10-16T07:17:50;24.66;;;1.62;;
17741;SDS011;8993;51.822;-2.268;2022-10-16T07:22:54;25.13;;;1.73;;
17741;SDS011;8993;51.822;-2.268;2022-10-16T07:27:58;24.58;;;1.72;;
17741;SDS011;8993;51.822;-2.268;2022-10-16T07:33:04;25.16;;;1.62;;
17741;SDS011;8993;51.822;-2.268;2022-10-16T07:38:08;23.24;;;1.45;;
17741;SDS011;8993;51.822;-2.268;2022-10-16T07:43:12;18.09;;;1.37;;
17741;SDS011;8993;51.822;-2.268;2022-10-16T07:48:16;17.17;;;1.37;;
17741;SDS011;8993;51.822;-2.268;2022-10-16T07:53:20;18.55;;;1.64;;
17741;SDS011;8993;51.822;-2.268;2022-10-16T07:58:24;21.19;;;1.59;;
17741;SDS011;8993;51.822;-2.268;2022-10-16T08:08:34;24.11;;;1.86;;
17741;SDS011;8993;51.822;-2.268;2022-10-16T08:13:39;16.54;;;1.33;;
17741;SDS011;8993;51.822;-2.268;2022-10-16T08:18:43;27.22;;;1.81;;
17741;SDS011;8993;51.822;-2.268;2022-10-16T08:23:50;18.52;;;1.57;;
17741;SDS011;8993;51.822;-2.268;2022-10-16T08:28:54;20.69;;;1.71;;
17741;SDS011;8993;51.822;-2.268;2022-10-16T08:34:00;22.51;;;1.62;;
17741;SDS011;8993;51.822;-2.268;2022-10-16T08:39:04;23.64;;;1.65;;
17741;SDS011;8993;51.822;-2.268;2022-10-16T08:44:18;22.29;;;1.72;;
17741;SDS011;8993;51.822;-2.268;2022-10-16T08:49:13;19.47;;;1.45;;
17741;SDS011;8993;51.822;-2.268;2022-10-16T08:54:21;19.77;;;1.54;;
17741;SDS011;8993;51.822;-2.268;2022-10-16T08:59:21;17.51;;;1.46;;
17741;SDS011;8993;51.822;-2.268;2022-10-16T09:04:31;21.34;;;1.49;;
17741;SDS011;8993;51.822;-2.268;2022-10-16T09:09:34;20.70;;;1.55;;
17741;SDS011;8993;51.822;-2.268;2022-10-16T09:14:38;16.37;;;1.35;;
17741;SDS011;8993;51.822;-2.268;2022-10-16T09:19:40;20.57;;;1.61;;
17741;SDS011;8993;51.822;-2.268;2022-10-16T09:24:43;16.81;;;1.50;;
17741;SDS011;8993;51.822;-2.268;2022-10-16T09:29:48;18.70;;;1.34;;
17741;SDS011;8993;51.822;-2.268;2022-10-16T09:34:52;15.01;;;1.49;;
17741;SDS011;8993;51.822;-2.268;2022-10-16T09:39:56;16.13;;;1.25;;
17741;SDS011;8993;51.822;-2.268;2022-10-16T09:45:01;14.17;;;1.20;;
17741;SDS011;8993;51.822;-2.268;2022-10-16T09:50:15;16.16;;;1.35;;
17741;SDS011;8993;51.822;-2.268;2022-10-16T09:55:13;14.86;;;1.20;;
17741;SDS011;8993;51.822;-2.268;2022-10-16T10:00:15;14.90;;;1.09;;
17741;SDS011;8993;51.822;-2.268;2022-10-16T10:05:20;14.73;;;1.30;;
17741;SDS011;8993;51.822;-2.268;2022-10-16T10:10:25;12.99;;;1.37;;
17741;SDS011;8993;51.822;-2.268;2022-10-16T10:15:29;12.59;;;1.10;;
17741;SDS011;8993;51.822;-2.268;2022-10-16T10:20:33;10.13;;;1.05;;
17741;SDS011;8993;51.822;-2.268;2022-10-16T10:25:40;13.23;;;1.25;;
17741;SDS011;8993;51.822;-2.268;2022-10-16T10:30:42;16.13;;;1.15;;
17741;SDS011;8993;51.822;-2.268;2022-10-16T10:35:46;13.88;;;1.07;;
17741;SDS011;8993;51.822;-2.268;2022-10-16T10:40:50;11.12;;;0.99;;
17741;SDS011;8993;51.822;-2.268;2022-10-16T10:45:54;13.77;;;1.13;;
17741;SDS011;8993;51.822;-2.268;2022-10-16T10:50:59;9.00;;;1.14;;
17741;SDS011;8993;51.822;-2.268;2022-10-16T10:56:05;15.53;;;1.43;;
17741;SDS011;8993;51.822;-2.268;2022-10-16T11:01:07;15.89;;;1.21;;
17741;SDS011;8993;51.822;-2.268;2022-10-16T11:06:11;12.16;;;0.94;;
17741;SDS011;8993;51.822;-2.268;2022-10-16T11:11:16;10.32;;;0.92;;
17741;SDS011;8993;51.822;-2.268;2022-10-16T11:16:19;11.69;;;1.11;;
17741;SDS011;8993;51.822;-2.268;2022-10-16T11:21:24;14.02;;;1.20;;
17741;SDS011;8993;51.822;-2.268;2022-10-16T11:26:29;10.81;;;1.26;;
17741;SDS011;8993;51.822;-2.268;2022-10-16T11:31:34;12.49;;;1.14;;
17741;SDS011;8993;51.822;-2.268;2022-10-16T11:36:39;10.82;;;1.14;;
17741;SDS011;8993;51.822;-2.268;2022-10-16T11:41:44;11.72;;;1.07;;
17741;SDS011;8993;51.822;-2.268;2022-10-16T11:46:49;9.76;;;1.02;;
17741;SDS011;8993;51.822;-2.268;2022-10-16T11:51:53;8.81;;;0.84;;
17741;SDS011;8993;51.822;-2.268;2022-10-16T11:56:57;11.11;;;0.89;;
17741;SDS011;8993;51.822;-2.268;2022-10-16T12:02:19;8.19;;;0.86;;
17741;SDS011;8993;51.822;-2.268;2022-10-16T12:07:04;11.64;;;1.00;;
17741;SDS011;8993;51.822;-2.268;2022-10-16T12:12:23;13.19;;;1.09;;
17741;SDS011;8993;51.822;-2.268;2022-10-16T12:17:33;9.99;;;1.01;;
17741;SDS011;8993;51.822;-2.268;2022-10-16T12:22:17;12.10;;;1.21;;
17741;SDS011;8993;51.822;-2.268;2022-10-16T12:27:22;9.26;;;0.93;;
17741;SDS011;8993;51.822;-2.268;2022-10-16T12:32:28;8.49;;;0.97;;
17741;SDS011;8993;51.822;-2.268;2022-10-16T12:37:32;12.87;;;0.95;;
17741;SDS011;8993;51.822;-2.268;2022-10-16T12:42:36;8.95;;;1.10;;
17741;SDS011;8993;51.822;-2.268;2022-10-16T12:47:47;9.48;;;1.07;;
17741;SDS011;8993;51.822;-2.268;2022-10-16T12:52:45;11.32;;;0.91;;
17741;SDS011;8993;51.822;-2.268;2022-10-16T12:57:57;9.86;;;0.98;;
17741;SDS011;8993;51.822;-2.268;2022-10-16T13:02:57;8.33;;;0.76;;
17741;SDS011;8993;51.822;-2.268;2022-10-16T13:08:02;10.16;;;0.99;;
17741;SDS011;8993;51.822;-2.268;2022-10-16T13:13:06;10.80;;;0.99;;
17741;SDS011;8993;51.822;-2.268;2022-10-16T13:18:09;9.60;;;0.84;;
17741;SDS011;8993;51.822;-2.268;2022-10-16T13:23:13;11.29;;;1.06;;
17741;SDS011;8993;51.822;-2.268;2022-10-16T13:28:15;8.58;;;0.88;;
17741;SDS011;8993;51.822;-2.268;2022-10-16T13:33:21;9.96;;;1.11;;
17741;SDS011;8993;51.822;-2.268;2022-10-16T13:38:24;9.97;;;1.03;;
17741;SDS011;8993;51.822;-2.268;2022-10-16T13:43:29;7.32;;;0.69;;
17741;SDS011;8993;51.822;-2.268;2022-10-16T13:48:33;6.93;;;0.57;;
17741;SDS011;8993;51.822;-2.268;2022-10-16T13:53:41;9.44;;;1.06;;
17741;SDS011;8993;51.822;-2.268;2022-10-16T13:58:57;9.08;;;1.06;;
17741;SDS011;8993;51.822;-2.268;2022-10-16T14:03:53;11.66;;;1.07;;
17741;SDS011;8993;51.822;-2.268;2022-10-16T14:09:00;12.53;;;1.30;;
17741;SDS011;8993;51.822;-2.268;2022-10-16T14:19:13;15.46;;;1.32;;
17741;SDS011;8993;51.822;-2.268;2022-10-16T14:29:18;13.35;;;1.24;;
17741;SDS011;8993;51.822;-2.268;2022-10-16T14:34:26;12.56;;;1.30;;
17741;SDS011;8993;51.822;-2.268;2022-10-16T14:39:27;11.50;;;1.18;;
17741;SDS011;8993;51.822;-2.268;2022-10-16T14:44:32;11.32;;;1.17;;
17741;SDS011;8993;51.822;-2.268;2022-10-16T14:49:35;10.27;;;1.16;;
17741;SDS011;8993;51.822;-2.268;2022-10-16T14:54:40;11.27;;;1.19;;
17741;SDS011;8993;51.822;-2.268;2022-10-16T14:59:44;13.56;;;1.24;;
17741;SDS011;8993;51.822;-2.268;2022-10-16T15:04:49;10.48;;;1.28;;
17741;SDS011;8993;51.822;-2.268;2022-10-16T15:09:55;12.08;;;1.18;;
17741;SDS011;8993;51.822;-2.268;2022-10-16T15:15:00;10.51;;;1.38;;
17741;SDS011;8993;51.822;-2.268;2022-10-16T15:20:04;11.72;;;1.28;;
17741;SDS011;8993;51.822;-2.268;2022-10-16T15:25:10;11.97;;;1.43;;
17741;SDS011;8993;51.822;-2.268;2022-10-16T15:30:13;14.07;;;1.54;;
17741;SDS011;8993;51.822;-2.268;2022-10-16T15:35:17;11.57;;;1.36;;
17741;SDS011;8993;51.822;-2.268;2022-10-16T15:40:22;15.88;;;1.74;;
17741;SDS011;8993;51.822;-2.268;2022-10-16T15:45:27;19.07;;;1.49;;
17741;SDS011;8993;51.822;-2.268;2022-10-16T15:50:39;13.34;;;1.58;;
17741;SDS011;8993;51.822;-2.268;2022-10-16T15:55:33;17.73;;;1.45;;
17741;SDS011;8993;51.822;-2.268;2022-10-16T16:00:37;16.12;;;1.65;;
17741;SDS011;8993;51.822;-2.268;2022-10-16T16:05:41;17.71;;;1.73;;
17741;SDS011;8993;51.822;-2.268;2022-10-16T16:10:45;14.72;;;1.45;;
17741;SDS011;8993;51.822;-2.268;2022-10-16T16:15:50;13.67;;;1.34;;
17741;SDS011;8993;51.822;-2.268;2022-10-16T16:20:54;16.40;;;1.35;;
17741;SDS011;8993;51.822;-2.268;2022-10-16T16:26:02;12.19;;;1.33;;
17741;SDS011;8993;51.822;-2.268;2022-10-16T16:31:03;12.48;;;1.26;;
17741;SDS011;8993;51.822;-2.268;2022-10-16T16:36:07;15.96;;;1.27;;
17741;SDS011;8993;51.822;-2.268;2022-10-16T16:41:11;14.61;;;1.29;;
17741;SDS011;8993;51.822;-2.268;2022-10-16T16:46:16;15.80;;;1.27;;
17741;SDS011;8993;51.822;-2.268;2022-10-16T16:51:21;13.84;;;1.32;;
17741;SDS011;8993;51.822;-2.268;2022-10-16T16:56:25;15.11;;;1.22;;
17741;SDS011;8993;51.822;-2.268;2022-10-16T17:01:30;16.59;;;1.54;;
17741;SDS011;8993;51.822;-2.268;2022-10-16T17:06:34;15.23;;;1.49;;
17741;SDS011;8993;51.822;-2.268;2022-10-16T17:11:41;15.86;;;1.58;;
17741;SDS011;8993;51.822;-2.268;2022-10-16T17:16:45;14.84;;;1.43;;
17741;SDS011;8993;51.822;-2.268;2022-10-16T17:21:50;16.53;;;1.57;;
17741;SDS011;8993;51.822;-2.268;2022-10-16T17:26:54;15.84;;;1.48;;
17741;SDS011;8993;51.822;-2.268;2022-10-16T17:31:59;17.02;;;1.47;;
17741;SDS011;8993;51.822;-2.268;2022-10-16T17:37:04;19.11;;;1.66;;
17741;SDS011;8993;51.822;-2.268;2022-10-16T17:42:08;15.51;;;1.40;;
17741;SDS011;8993;51.822;-2.268;2022-10-16T17:47:13;16.08;;;1.42;;
17741;SDS011;8993;51.822;-2.268;2022-10-16T17:52:17;16.89;;;1.54;;
17741;SDS011;8993;51.822;-2.268;2022-10-16T17:57:21;15.25;;;1.67;;
17741;SDS011;8993;51.822;-2.268;2022-10-16T18:02:25;14.86;;;1.33;;
17741;SDS011;8993;51.822;-2.268;2022-10-16T18:07:30;18.21;;;1.54;;
17741;SDS011;8993;51.822;-2.268;2022-10-16T18:12:34;15.88;;;1.37;;
17741;SDS011;8993;51.822;-2.268;2022-10-16T18:17:40;13.37;;;1.35;;
17741;SDS011;8993;51.822;-2.268;2022-10-16T18:22:46;12.38;;;1.37;;
17741;SDS011;8993;51.822;-2.268;2022-10-16T18:27:50;13.82;;;1.30;;
17741;SDS011;8993;51.822;-2.268;2022-10-16T18:32:55;12.54;;;1.41;;
17741;SDS011;8993;51.822;-2.268;2022-10-16T18:37:59;13.18;;;1.40;;
17741;SDS011;8993;51.822;-2.268;2022-10-16T18:43:04;13.85;;;1.28;;
17741;SDS011;8993;51.822;-2.268;2022-10-16T18:48:08;13.07;;;1.38;;
17741;SDS011;8993;51.822;-2.268;2022-10-16T18:53:12;11.74;;;1.09;;
17741;SDS011;8993;51.822;-2.268;2022-10-16T18:58:16;7.68;;;0.96;;
17741;SDS011;8993;51.822;-2.268;2022-10-16T19:03:21;5.95;;;1.01;;
17741;SDS011;8993;51.822;-2.268;2022-10-16T19:08:25;6.16;;;0.77;;
17741;SDS011;8993;51.822;-2.268;2022-10-16T19:13:29;6.44;;;0.83;;
17741;SDS011;8993;51.822;-2.268;2022-10-16T19:18:35;3.66;;;0.78;;
17741;SDS011;8993;51.822;-2.268;2022-10-16T19:23:40;2.89;;;0.76;;
17741;SDS011;8993;51.822;-2.268;2022-10-16T19:28:44;2.51;;;0.88;;
17741;SDS011;8993;51.822;-2.268;2022-10-16T19:33:50;3.16;;;0.79;;
17741;SDS011;8993;51.822;-2.268;2022-10-16T19:38:53;3.16;;;0.83;;
17741;SDS011;8993;51.822;-2.268;2022-10-16T19:43:59;5.59;;;1.12;;
17741;SDS011;8993;51.822;-2.268;2022-10-16T19:49:04;2.99;;;0.84;;
17741;SDS011;8993;51.822;-2.268;2022-10-16T19:54:07;3.20;;;0.76;;
17741;SDS011;8993;51.822;-2.268;2022-10-16T19:59:11;3.67;;;0.86;;
17741;SDS011;8993;51.822;-2.268;2022-10-16T20:04:15;2.72;;;0.70;;
17741;SDS011;8993;51.822;-2.268;2022-10-16T20:09:19;4.34;;;0.94;;
17741;SDS011;8993;51.822;-2.268;2022-10-16T20:14:23;3.50;;;1.01;;
17741;SDS011;8993;51.822;-2.268;2022-10-16T20:19:28;1.62;;;0.75;;
17741;SDS011;8993;51.822;-2.268;2022-10-16T20:24:32;1.44;;;0.66;;
17741;SDS011;8993;51.822;-2.268;2022-10-16T20:29:37;2.04;;;0.74;;
17741;SDS011;8993;51.822;-2.268;2022-10-16T20:34:41;1.36;;;0.72;;
17741;SDS011;8993;51.822;-2.268;2022-10-16T20:39:52;1.73;;;0.75;;
17741;SDS011;8993;51.822;-2.268;2022-10-16T20:44:54;2.01;;;0.61;;
17741;SDS011;8993;51.822;-2.268;2022-10-16T20:49:58;2.33;;;0.79;;
17741;SDS011;8993;51.822;-2.268;2022-10-16T20:55:03;2.10;;;0.85;;
17741;SDS011;8993;51.822;-2.268;2022-10-16T21:00:07;4.12;;;0.93;;
17741;SDS011;8993;51.822;-2.268;2022-10-16T21:05:11;2.78;;;0.97;;
17741;SDS011;8993;51.822;-2.268;2022-10-16T21:10:15;4.26;;;1.19;;
17741;SDS011;8993;51.822;-2.268;2022-10-16T21:15:19;4.21;;;1.11;;
17741;SDS011;8993;51.822;-2.268;2022-10-16T21:20:24;3.99;;;0.96;;
17741;SDS011;8993;51.822;-2.268;2022-10-16T21:25:29;5.68;;;0.81;;
17741;SDS011;8993;51.822;-2.268;2022-10-16T21:30:33;5.07;;;1.03;;
17741;SDS011;8993;51.822;-2.268;2022-10-16T21:35:38;6.60;;;1.00;;
17741;SDS011;8993;51.822;-2.268;2022-10-16T21:40:42;5.06;;;0.72;;
17741;SDS011;8993;51.822;-2.268;2022-10-16T21:45:47;6.16;;;0.81;;
17741;SDS011;8993;51.822;-2.268;2022-10-16T21:50:51;4.46;;;0.70;;
17741;SDS011;8993;51.822;-2.268;2022-10-16T21:55:56;7.12;;;0.75;;
17741;SDS011;8993;51.822;-2.268;2022-10-16T22:01:05;5.06;;;0.73;;
17741;SDS011;8993;51.822;-2.268;2022-10-16T22:06:05;7.02;;;0.92;;
17741;SDS011;8993;51.822;-2.268;2022-10-16T22:11:11;7.27;;;0.77;;
17741;SDS011;8993;51.822;-2.268;2022-10-16T22:16:17;7.79;;;0.82;;
17741;SDS011;8993;51.822;-2.268;2022-10-16T22:21:18;7.58;;;0.76;;
17741;SDS011;8993;51.822;-2.268;2022-10-16T22:26:23;9.44;;;0.91;;
17741;SDS011;8993;51.822;-2.268;2022-10-16T22:31:27;9.61;;;1.01;;
17741;SDS011;8993;51.822;-2.268;2022-10-16T22:36:31;10.02;;;0.90;;
17741;SDS011;8993;51.822;-2.268;2022-10-16T22:41:35;5.92;;;0.78;;
17741;SDS011;8993;51.822;-2.268;2022-10-16T22:46:40;9.53;;;0.96;;
17741;SDS011;8993;51.822;-2.268;2022-10-16T22:51:47;8.97;;;0.83;;
17741;SDS011;8993;51.822;-2.268;2022-10-16T22:56:51;6.87;;;0.79;;
17741;SDS011;8993;51.822;-2.268;2022-10-16T23:01:55;8.19;;;0.83;;
17741;SDS011;8993;51.822;-2.268;2022-10-16T23:07:00;8.13;;;0.80;;
17741;SDS011;8993;51.822;-2.268;2022-10-16T23:12:05;6.90;;;0.83;;
17741;SDS011;8993;51.822;-2.268;2022-10-16T23:17:08;10.43;;;0.90;;
17741;SDS011;8993;51.822;-2.268;2022-10-16T23:22:12;7.53;;;0.77;;
17741;SDS011;8993;51.822;-2.268;2022-10-16T23:27:16;9.32;;;0.82;;
17741;SDS011;8993;51.822;-2.268;2022-10-16T23:37:26;9.44;;;0.89;;
17741;SDS011;8993;51.822;-2.268;2022-10-16T23:42:32;8.39;;;0.84;;
17741;SDS011;8993;51.822;-2.268;2022-10-16T23:47:36;8.34;;;0.87;;
17741;SDS011;8993;51.822;-2.268;2022-10-16T23:52:42;9.03;;;0.71;;
17741;SDS011;8993;51.822;-2.268;2022-10-16T23:57:46;8.16;;;0.91;;
